Aeroboteco Virtual Airlines! Uma nuvem a frente.



 INFORMAÇÕES METEOROLÓGICAS
METAR FOR LEBA
ADDS - METARS form results

(0320 UTC 27 May 2019)
Data provider http://aviationweather.gov/metar/data/
 
METAR text: LEBA 270300Z AUTO 20003KT 9999 NCD 16/10 Q1013
Conditions at: LEBA (CORDOBA AIRPORT , ES) observed 0300 UTC 27 May 2019
Temperature: 16.0°C (61°F)
Dewpoint: 10.0°C (50°F) [RH = 68%]
Pressure (altimeter): 29.91 inches Hg (1013.0 mb)
Winds: from the SSW (200 degrees) at 3 MPH (3 knots; 1.5 m/s)
Visibility: 6 or more miles (10+ km)
Ceiling: at least 12,000 feet AGL
Clouds: sky clear below 12,000 feet AGL
Weather: no significant weather observed at this time

METAR text: LEBA 270230Z AUTO 22002KT 9999 NCD 16/10 Q1014
Conditions at: LEBA (CORDOBA AIRPORT , ES) observed 0230 UTC 27 May 2019
Temperature: 16.0°C (61°F)
Dewpoint: 10.0°C (50°F) [RH = 68%]
Pressure (altimeter): 29.94 inches Hg (1014.0 mb)
Winds: from the SW (220 degrees) at 2 MPH (2 knots; 1.0 m/s)
Visibility: 6 or more miles (10+ km)
Ceiling: at least 12,000 feet AGL
Clouds: sky clear below 12,000 feet AGL
Weather: no significant weather observed at this time

Forecast for: LEBA (CORDOBA AIRPORT , ES)
Text: TAF LEBA 270200Z 2703/2712 25003KT CAVOK
Forecast period: 0300 to 1200 UTC 27 May 2019
Forecast type: FROM: standard forecast or significant change
Winds: from the WSW (250 degrees) at 3 MPH (3 knots; 1.5 m/s)
Visibility: 6 or more miles 10+ km)
Ceiling: unknown
Clouds: missing
Weather: NSW  (no significant weather)

 MAPA DO AEROPORTO

 INFORMAÇÕES DA PISTA
Pista 03 Tamanho da pista 4527 ft Largura da pista 148 ft
Elevação da pista 293 ft Ranhura da pista 0 ft Proa da pista 29
Pista 21 Tamanho da pista 4527 ft Largura da pista 148 ft
Elevação da pista 297 ft Ranhura da pista 0 ft Proa da pista 209

 FREQUÊNCIAS DO AEROPORTO
Tipo CTAF Nome CTAF Frequência 118.3 MHZ

 AUXÍLIOS DE NAVEGAÇÃO PRÓXIMOS AO AEROPORTO
Tipo VOR-DME Nome Cordoba Frequência 112400 KHZ
Tipo NDB Nome Cordoba Frequência 366 KHZ